createdAt,value
2022-12-15T00:01:22.816Z,-3.15
2022-12-15T00:04:08.592Z,-3.12
2022-12-15T00:06:54.165Z,-3.02
2022-12-15T00:09:39.653Z,-3.09
2022-12-15T00:12:25.258Z,-3.16
2022-12-15T00:15:10.562Z,-3.14
2022-12-15T00:17:55.972Z,-3.11
2022-12-15T00:20:44.181Z,-3.08
2022-12-15T00:23:34.885Z,-3.09
2022-12-15T00:26:20.594Z,-3.10
2022-12-15T00:29:08.018Z,-3.18
2022-12-15T00:31:53.803Z,-3.16
2022-12-15T00:34:42.337Z,-3.16
2022-12-15T00:37:30.350Z,-3.20
2022-12-15T00:40:02.230Z,-3.27
2022-12-15T00:42:32.298Z,-3.22
2022-12-15T00:44:59.626Z,-3.19
2022-12-15T00:47:30.262Z,-3.25
2022-12-15T00:50:18.266Z,-3.27
2022-12-15T00:53:07.218Z,-3.30
2022-12-15T00:55:56.729Z,-3.28
2022-12-15T00:58:46.117Z,-3.29
2022-12-15T01:01:31.783Z,-3.28
2022-12-15T01:04:17.562Z,-3.31
2022-12-15T01:07:02.949Z,-3.28
2022-12-15T01:09:48.525Z,-3.35
2022-12-15T01:12:37.913Z,-3.33
2022-12-15T01:15:24.286Z,-3.34
2022-12-15T01:18:10.193Z,-3.29
2022-12-15T01:20:37.392Z,-3.27
2022-12-15T01:23:04.369Z,-3.31
2022-12-15T01:25:31.496Z,-3.27
2022-12-15T01:27:58.388Z,-3.27
2022-12-15T01:30:27.325Z,-3.32
2022-12-15T01:32:54.295Z,-3.30
2022-12-15T01:35:22.055Z,-3.32
2022-12-15T01:37:49.913Z,-3.30
2022-12-15T01:40:38.832Z,-3.23
2022-12-15T01:43:18.221Z,-3.23
2022-12-15T01:46:08.744Z,-3.28
2022-12-15T01:48:52.326Z,-3.26
2022-12-15T01:51:39.377Z,-3.30
2022-12-15T01:54:22.044Z,-3.28
2022-12-15T01:56:57.415Z,-3.29
2022-12-15T01:59:32.440Z,-3.29
2022-12-15T02:01:59.599Z,-3.27
2022-12-15T02:04:27.121Z,-3.25
2022-12-15T02:06:54.192Z,-3.21
2022-12-15T02:09:22.938Z,-3.24
2022-12-15T02:12:29.115Z,-3.20
2022-12-15T02:15:25.802Z,-3.19
2022-12-15T02:18:20.464Z,-3.22
2022-12-15T02:21:58.186Z,-3.22
2022-12-15T02:24:58.501Z,-3.26
2022-12-15T02:27:55.814Z,-3.23
2022-12-15T02:30:43.762Z,-3.23
2022-12-15T02:33:28.488Z,-3.20
2022-12-15T02:36:27.774Z,-3.17
2022-12-15T02:38:56.367Z,-3.15
2022-12-15T02:41:51.631Z,-3.18
2022-12-15T02:44:43.544Z,-3.22
2022-12-15T02:47:27.917Z,-3.17
2022-12-15T02:50:29.660Z,-3.18
2022-12-15T02:53:41.372Z,-3.21
2022-12-15T02:56:44.848Z,-3.24
2022-12-15T02:59:55.783Z,-3.26
2022-12-15T03:02:30.534Z,-3.23
2022-12-15T03:04:59.104Z,-3.19
2022-12-15T03:07:28.489Z,-3.22
2022-12-15T03:09:59.911Z,-3.19
2022-12-15T03:12:27.667Z,-3.18
2022-12-15T03:14:54.631Z,-3.16
2022-12-15T03:17:21.677Z,-3.19
2022-12-15T03:19:49.750Z,-3.24
2022-12-15T03:22:16.920Z,-3.23
2022-12-15T03:24:43.845Z,-3.23
2022-12-15T03:27:10.963Z,-3.25
2022-12-15T03:29:38.100Z,-3.28
2022-12-15T03:32:05.624Z,-3.31
2022-12-15T03:34:32.695Z,-3.30
2022-12-15T03:36:59.724Z,-3.32
2022-12-15T03:39:26.728Z,-3.32
2022-12-15T03:41:53.663Z,-3.30
2022-12-15T03:44:21.039Z,-3.27
2022-12-15T03:46:48.000Z,-3.25
2022-12-15T03:49:14.922Z,-3.31
2022-12-15T03:51:41.855Z,-3.28
2022-12-15T03:54:08.895Z,-3.33
2022-12-15T03:56:35.939Z,-3.38
2022-12-15T03:59:03.350Z,-3.32
2022-12-15T04:01:35.560Z,-3.39
2022-12-15T04:04:04.003Z,-3.41
2022-12-15T04:06:31.841Z,-3.42
2022-12-15T04:08:59.182Z,-3.45
2022-12-15T04:11:26.208Z,-3.52
2022-12-15T04:13:53.253Z,-3.53
2022-12-15T04:16:20.680Z,-3.52
2022-12-15T04:19:08.356Z,-3.57
2022-12-15T04:21:35.258Z,-3.59
2022-12-15T04:24:20.743Z,-3.53
2022-12-15T04:27:05.891Z,-3.60
2022-12-15T04:29:51.027Z,-3.62
2022-12-15T04:32:36.522Z,-3.64
2022-12-15T04:35:22.025Z,-3.63
2022-12-15T04:38:07.298Z,-3.61
2022-12-15T04:40:52.756Z,-3.59
2022-12-15T04:43:38.071Z,-3.54
2022-12-15T04:46:23.577Z,-3.57
2022-12-15T04:49:08.931Z,-3.54
2022-12-15T04:51:54.323Z,-3.60
2022-12-15T04:54:39.585Z,-3.60
2022-12-15T04:57:25.120Z,-3.60
2022-12-15T05:00:10.371Z,-3.60
2022-12-15T05:02:56.048Z,-3.60
2022-12-15T05:05:41.849Z,-3.59
2022-12-15T05:08:27.405Z,-3.55
2022-12-15T05:11:12.731Z,-3.60
2022-12-15T05:13:58.345Z,-3.58
2022-12-15T05:16:43.834Z,-3.52
2022-12-15T05:19:29.419Z,-3.58
2022-12-15T05:22:15.424Z,-3.57
2022-12-15T05:25:01.015Z,-3.53
2022-12-15T05:27:46.582Z,-3.55
2022-12-15T05:30:32.056Z,-3.60
2022-12-15T05:33:03.828Z,-3.73
2022-12-15T05:35:31.315Z,-3.76
2022-12-15T05:37:58.217Z,-3.81
2022-12-15T05:40:25.179Z,-3.87
2022-12-15T05:42:52.119Z,-3.84
2022-12-15T05:45:19.107Z,-3.89
2022-12-15T05:47:54.723Z,-3.90
2022-12-15T05:50:23.445Z,-3.85
2022-12-15T05:52:50.799Z,-3.82
2022-12-15T05:55:19.255Z,-3.89
2022-12-15T05:57:55.037Z,-3.93
2022-12-15T06:00:22.752Z,-3.93
2022-12-15T06:02:50.223Z,-3.91
2022-12-15T06:05:17.510Z,-3.98
2022-12-15T06:07:44.513Z,-4.03
2022-12-15T06:10:11.715Z,-4.03
2022-12-15T06:12:38.867Z,-4.11
2022-12-15T06:15:06.454Z,-4.09
2022-12-15T06:17:33.528Z,-4.13
2022-12-15T06:20:00.487Z,-4.21
2022-12-15T06:22:29.795Z,-4.33
2022-12-15T06:24:56.916Z,-4.37
2022-12-15T06:27:23.884Z,-4.42
2022-12-15T06:29:50.775Z,-4.42
2022-12-15T06:32:17.671Z,-4.51
2022-12-15T06:34:44.736Z,-4.54
2022-12-15T06:37:12.873Z,-4.49
2022-12-15T06:39:40.040Z,-4.54
2022-12-15T06:42:06.974Z,-4.56
2022-12-15T06:44:33.921Z,-4.64
2022-12-15T06:47:01.124Z,-4.61
2022-12-15T06:49:28.146Z,-4.67
2022-12-15T06:51:55.076Z,-4.64
2022-12-15T06:54:22.023Z,-4.65
2022-12-15T06:56:50.036Z,-4.68
2022-12-15T06:59:17.235Z,-4.73
2022-12-15T07:01:44.551Z,-4.77
2022-12-15T07:04:12.102Z,-4.82
2022-12-15T07:06:40.179Z,-4.73
2022-12-15T07:09:13.407Z,-4.84
2022-12-15T07:11:40.684Z,-4.82
2022-12-15T07:14:07.645Z,-4.88
2022-12-15T07:16:34.722Z,-4.98
2022-12-15T07:19:01.783Z,-4.98
2022-12-15T07:21:28.736Z,-4.98
2022-12-15T07:23:57.021Z,-5.13
2022-12-15T07:26:25.498Z,-5.19
2022-12-15T07:28:53.848Z,-5.24
2022-12-15T07:31:22.501Z,-5.38
2022-12-15T07:33:49.722Z,-5.36
2022-12-15T07:36:16.838Z,-5.33
2022-12-15T07:38:49.956Z,-5.37
2022-12-15T07:41:19.509Z,-5.35
2022-12-15T07:43:47.856Z,-5.33
2022-12-15T07:46:15.682Z,-5.29
2022-12-15T07:48:42.874Z,-5.27
2022-12-15T07:51:18.889Z,-5.30
2022-12-15T07:53:49.781Z,-5.26
2022-12-15T07:56:17.689Z,-5.29
2022-12-15T07:58:44.634Z,-5.35
2022-12-15T08:01:13.900Z,-5.34
2022-12-15T08:03:41.631Z,-5.31
2022-12-15T08:06:12.341Z,-5.24
2022-12-15T08:08:40.639Z,-5.22
2022-12-15T08:11:14.990Z,-5.19
2022-12-15T08:16:31.076Z,-5.15
2022-12-15T08:18:58.195Z,-5.11
2022-12-15T08:21:25.336Z,-5.09
2022-12-15T08:23:52.398Z,-5.07
2022-12-15T08:26:22.653Z,-4.99
2022-12-15T08:28:54.242Z,-5.02
2022-12-15T08:31:23.651Z,-4.90
2022-12-15T08:33:51.255Z,-4.87
2022-12-15T08:36:20.323Z,-4.93
2022-12-15T08:38:48.440Z,-4.94
2022-12-15T08:41:23.125Z,-4.83
2022-12-15T08:44:22.821Z,-4.72
2022-12-15T08:46:51.303Z,-4.61
2022-12-15T08:49:22.109Z,-4.52
2022-12-15T08:51:50.592Z,-4.47
2022-12-15T08:54:20.694Z,-4.42
2022-12-15T08:56:48.184Z,-4.42
2022-12-15T08:59:15.795Z,-4.35
2022-12-15T09:01:43.582Z,-4.41
2022-12-15T09:04:10.904Z,-4.27
2022-12-15T09:06:37.869Z,-4.39
2022-12-15T09:09:08.344Z,-4.24
2022-12-15T09:11:35.635Z,-4.14
2022-12-15T09:14:02.608Z,-4.19
2022-12-15T09:16:30.194Z,-4.21
2022-12-15T09:18:59.927Z,-4.19
2022-12-15T09:21:30.158Z,-4.13
2022-12-15T09:24:02.097Z,-4.00
2022-12-15T09:26:34.797Z,-4.02
2022-12-15T09:29:02.268Z,-3.97
2022-12-15T09:31:33.172Z,-3.85
2022-12-15T09:34:01.317Z,-3.80
2022-12-15T09:36:30.575Z,-3.75
2022-12-15T09:38:57.604Z,-3.75
2022-12-15T09:41:29.977Z,-3.63
2022-12-15T09:44:07.630Z,-3.66
2022-12-15T09:46:49.914Z,-3.56
2022-12-15T09:49:42.158Z,-3.69
2022-12-15T09:52:20.512Z,-3.65
2022-12-15T09:54:47.575Z,-3.53
2022-12-15T09:57:40.811Z,-3.52
2022-12-15T10:00:21.318Z,-3.46
2022-12-15T10:03:10.166Z,-3.44
2022-12-15T10:06:15.489Z,-3.42
2022-12-15T10:08:45.328Z,-3.36
2022-12-15T10:11:20.483Z,-3.36
2022-12-15T10:14:37.905Z,-3.39
2022-12-15T10:17:26.294Z,-3.39
2022-12-15T10:20:24.491Z,-3.45
2022-12-15T10:22:51.479Z,-3.46
2022-12-15T10:25:32.099Z,-3.41
2022-12-15T10:28:17.535Z,-3.31
2022-12-15T10:31:09.457Z,-3.18
2022-12-15T10:33:47.054Z,-3.40
2022-12-15T10:36:16.949Z,-3.48
2022-12-15T10:38:50.286Z,-3.43
2022-12-15T10:41:22.657Z,-3.69
2022-12-15T10:43:52.652Z,-3.86
2022-12-15T10:46:24.638Z,-3.80
2022-12-15T10:48:54.216Z,-3.86
2022-12-15T10:51:33.412Z,-3.92
2022-12-15T10:54:36.335Z,-3.87
2022-12-15T10:57:31.704Z,-3.89
2022-12-15T11:00:25.228Z,-3.94
2022-12-15T11:02:52.546Z,-3.92
2022-12-15T11:05:21.499Z,-3.81
2022-12-15T11:08:14.516Z,-3.88
2022-12-15T11:11:12.921Z,-4.13
2022-12-15T11:13:41.238Z,-4.17
2022-12-15T11:16:17.543Z,-4.03
2022-12-15T11:19:03.342Z,-4.02
2022-12-15T11:21:48.729Z,-4.14
2022-12-15T11:25:05.610Z,-4.08
2022-12-15T11:27:38.953Z,-4.04
2022-12-15T11:30:29.268Z,-4.19
2022-12-15T11:33:00.262Z,-4.13
2022-12-15T11:35:54.910Z,-4.10
2022-12-15T11:38:37.200Z,-4.26
2022-12-15T11:41:51.005Z,-4.04
2022-12-15T11:44:35.760Z,-4.00
2022-12-15T11:47:31.547Z,-4.17
2022-12-15T11:50:19.480Z,-4.22
2022-12-15T11:53:15.392Z,-4.27
2022-12-15T11:56:30.835Z,-4.31
2022-12-15T11:59:40.813Z,-4.23
2022-12-15T12:03:07.446Z,-4.11
2022-12-15T12:05:43.003Z,-4.12
2022-12-15T12:08:18.795Z,-4.18
2022-12-15T12:11:09.561Z,-4.16
2022-12-15T12:13:54.320Z,-4.16
2022-12-15T12:17:09.673Z,-4.34
2022-12-15T12:20:16.864Z,-4.44
2022-12-15T12:23:06.168Z,-4.34
2022-12-15T12:26:04.890Z,-4.27
2022-12-15T12:28:59.316Z,-4.27
2022-12-15T12:31:50.823Z,-4.33
2022-12-15T12:34:47.290Z,-4.34
2022-12-15T12:37:41.788Z,-4.32
2022-12-15T12:40:47.028Z,-4.18
2022-12-15T12:43:40.157Z,-4.13
2022-12-15T12:46:14.714Z,-4.01
2022-12-15T12:48:53.491Z,-3.94
2022-12-15T12:51:25.365Z,-4.05
2022-12-15T12:53:53.120Z,-4.12
2022-12-15T12:56:42.871Z,-4.15
2022-12-15T12:59:31.083Z,-4.09
2022-12-15T13:02:31.139Z,-4.03
2022-12-15T13:04:58.800Z,-3.96
2022-12-15T13:07:34.986Z,-3.94
2022-12-15T13:10:24.771Z,-3.94
2022-12-15T13:12:59.460Z,-4.06
2022-12-15T13:15:29.329Z,-3.97
2022-12-15T13:18:07.181Z,-3.90
2022-12-15T13:20:37.943Z,-3.98
2022-12-15T13:23:37.069Z,-3.83
2022-12-15T13:26:12.502Z,-3.84
2022-12-15T13:28:43.624Z,-3.94
2022-12-15T13:31:16.909Z,-3.98
2022-12-15T13:33:50.500Z,-3.97
2022-12-15T13:36:38.464Z,-3.86
2022-12-15T13:39:17.593Z,-3.88
2022-12-15T13:42:31.624Z,-3.89
2022-12-15T13:44:48.721Z,-3.98
2022-12-15T13:47:20.781Z,-4.07
2022-12-15T13:50:18.587Z,-4.02
2022-12-15T13:53:18.486Z,-3.89
2022-12-15T13:56:07.039Z,-3.86
2022-12-15T13:58:48.950Z,-3.95
2022-12-15T14:01:32.630Z,-3.82
2022-12-15T14:04:09.882Z,-3.76
2022-12-15T14:06:47.025Z,-3.80
2022-12-15T14:09:33.803Z,-3.92
2022-12-15T14:12:05.121Z,-3.86
2022-12-15T14:14:37.658Z,-3.85
2022-12-15T14:17:11.152Z,-3.75
2022-12-15T14:19:50.975Z,-3.75
2022-12-15T14:22:30.654Z,-3.70
2022-12-15T14:25:21.800Z,-3.72
2022-12-15T14:27:53.540Z,-3.74
2022-12-15T14:30:30.401Z,-3.77
2022-12-15T14:33:14.373Z,-3.83
2022-12-15T14:35:50.024Z,-3.92
2022-12-15T14:38:24.776Z,-3.75
2022-12-15T14:40:54.677Z,-3.77
2022-12-15T14:43:33.108Z,-3.80
2022-12-15T14:46:18.403Z,-3.82
2022-12-15T14:49:02.994Z,-3.83
2022-12-15T14:51:41.852Z,-3.82
2022-12-15T14:54:32.350Z,-3.91
2022-12-15T14:57:16.474Z,-3.88
2022-12-15T14:59:46.294Z,-3.86
2022-12-15T15:02:30.709Z,-3.82
2022-12-15T15:05:05.125Z,-3.83
2022-12-15T15:07:34.040Z,-3.87
2022-12-15T15:10:21.621Z,-3.83
2022-12-15T15:12:49.740Z,-3.84
2022-12-15T15:15:19.938Z,-3.81
2022-12-15T15:17:59.224Z,-3.82
2022-12-15T15:20:29.998Z,-3.80
2022-12-15T15:23:17.469Z,-3.78
2022-12-15T15:25:58.529Z,-3.80
2022-12-15T15:28:36.497Z,-3.80
2022-12-15T15:31:27.434Z,-3.83
2022-12-15T15:33:58.159Z,-3.88
2022-12-15T15:36:32.672Z,-3.88
2022-12-15T15:39:01.388Z,-3.89
2022-12-15T15:41:31.988Z,-3.89
2022-12-15T15:44:01.475Z,-3.90
2022-12-15T15:46:32.386Z,-3.89
2022-12-15T15:49:07.414Z,-3.90
2022-12-15T15:51:35.872Z,-3.89
2022-12-15T15:54:18.549Z,-3.90
2022-12-15T15:56:45.738Z,-3.89
2022-12-15T15:59:16.502Z,-3.92
2022-12-15T16:01:52.025Z,-3.91
2022-12-15T16:04:19.100Z,-3.92
2022-12-15T16:06:47.967Z,-3.96
2022-12-15T16:09:17.033Z,-3.95
2022-12-15T16:11:46.099Z,-3.96
2022-12-15T16:14:16.219Z,-3.98
2022-12-15T16:16:43.901Z,-4.02
2022-12-15T16:19:12.415Z,-4.07
2022-12-15T16:21:41.378Z,-4.02
2022-12-15T16:24:16.924Z,-4.10
2022-12-15T16:26:51.251Z,-4.13
2022-12-15T16:29:20.859Z,-4.12
2022-12-15T16:31:48.244Z,-4.14
2022-12-15T16:34:20.495Z,-4.16
2022-12-15T16:36:47.786Z,-4.17
2022-12-15T16:39:35.483Z,-4.21
2022-12-15T16:42:04.071Z,-4.23
2022-12-15T16:44:32.229Z,-4.25
2022-12-15T16:46:59.348Z,-4.24
2022-12-15T16:49:27.907Z,-4.25
2022-12-15T16:51:55.589Z,-4.26
2022-12-15T16:54:29.592Z,-4.27
2022-12-15T16:56:58.502Z,-4.25
2022-12-15T16:59:35.677Z,-4.25
2022-12-15T17:02:28.470Z,-4.24
2022-12-15T17:04:56.578Z,-4.24
2022-12-15T17:07:27.945Z,-4.23
2022-12-15T17:09:55.521Z,-4.20
2022-12-15T17:12:22.683Z,-4.18
2022-12-15T17:14:52.446Z,-4.14
2022-12-15T17:17:20.392Z,-4.11
2022-12-15T17:20:27.880Z,-4.07
2022-12-15T17:23:03.663Z,-4.03
2022-12-15T17:26:18.517Z,-4.00
2022-12-15T17:28:37.421Z,-3.99
2022-12-15T17:31:04.955Z,-3.97
2022-12-15T17:33:35.702Z,-3.92
2022-12-15T17:36:17.221Z,-3.94
2022-12-15T17:38:44.387Z,-3.93
2022-12-15T17:41:35.113Z,-3.91
2022-12-15T17:44:31.886Z,-3.90
2022-12-15T17:46:49.714Z,-3.89
2022-12-15T17:49:17.124Z,-3.89
2022-12-15T17:51:45.572Z,-3.88
2022-12-15T17:54:19.285Z,-3.87
2022-12-15T17:56:48.776Z,-3.87
2022-12-15T17:59:22.479Z,-3.88
2022-12-15T18:01:50.430Z,-3.87
2022-12-15T18:04:17.501Z,-3.83
2022-12-15T18:06:45.037Z,-3.83
2022-12-15T18:09:17.799Z,-3.81
2022-12-15T18:11:46.843Z,-3.84
2022-12-15T18:14:19.585Z,-3.83
2022-12-15T18:16:47.181Z,-3.83
2022-12-15T18:19:14.684Z,-3.83
2022-12-15T18:21:42.119Z,-3.82
2022-12-15T18:24:17.535Z,-3.83
2022-12-15T18:26:57.782Z,-3.80
2022-12-15T18:29:24.995Z,-3.83
2022-12-15T18:31:52.631Z,-3.85
2022-12-15T18:34:23.583Z,-3.83
2022-12-15T18:36:53.219Z,-3.84
2022-12-15T18:39:23.853Z,-3.81
2022-12-15T18:41:55.239Z,-3.82
2022-12-15T18:44:26.090Z,-3.81
2022-12-15T18:46:55.213Z,-3.81
2022-12-15T18:49:24.637Z,-3.82
2022-12-15T18:51:52.004Z,-3.80
2022-12-15T18:54:24.569Z,-3.79
2022-12-15T18:56:53.420Z,-3.79
2022-12-15T18:59:23.132Z,-3.77
2022-12-15T19:01:52.284Z,-3.77
2022-12-15T19:04:19.775Z,-3.76
2022-12-15T19:06:46.850Z,-3.76
2022-12-15T19:09:21.771Z,-3.78
2022-12-15T19:12:19.258Z,-3.77
2022-12-15T19:14:49.949Z,-3.78
2022-12-15T19:17:41.243Z,-3.76
2022-12-15T19:20:37.143Z,-3.77
2022-12-15T19:23:05.736Z,-3.78
2022-12-15T19:25:35.532Z,-3.75
2022-12-15T19:28:02.578Z,-3.76
2022-12-15T19:30:40.113Z,-3.77
2022-12-15T19:33:11.353Z,-3.74
2022-12-15T19:35:41.330Z,-3.73
2022-12-15T19:38:35.628Z,-3.71
2022-12-15T19:41:02.576Z,-3.71
2022-12-15T19:43:30.120Z,-3.66
2022-12-15T19:45:57.777Z,-3.67
2022-12-15T19:48:24.960Z,-3.66
2022-12-15T19:50:52.445Z,-3.64
2022-12-15T19:53:28.652Z,-3.64
2022-12-15T19:56:01.596Z,-3.62
2022-12-15T19:58:35.597Z,-3.61
2022-12-15T20:01:08.872Z,-3.61
2022-12-15T20:03:36.854Z,-3.59
2022-12-15T20:06:14.978Z,-3.59
2022-12-15T20:08:45.819Z,-3.58
2022-12-15T20:11:23.557Z,-3.58
2022-12-15T20:13:52.253Z,-3.59
2022-12-15T20:16:20.812Z,-3.57
2022-12-15T20:18:54.908Z,-3.57
2022-12-15T20:21:28.582Z,-3.55
2022-12-15T20:24:00.597Z,-3.56
2022-12-15T20:26:30.655Z,-3.54
2022-12-15T20:28:58.113Z,-3.50
2022-12-15T20:31:25.951Z,-3.49
2022-12-15T20:33:53.860Z,-3.48
2022-12-15T20:36:25.838Z,-3.48
2022-12-15T20:38:54.038Z,-3.49
2022-12-15T20:41:25.499Z,-3.50
2022-12-15T20:43:56.663Z,-3.47
2022-12-15T20:46:35.729Z,-3.48
2022-12-15T20:49:02.842Z,-3.51
2022-12-15T20:51:33.835Z,-3.49
2022-12-15T20:54:02.961Z,-3.47
2022-12-15T20:56:30.323Z,-3.45
2022-12-15T20:58:58.584Z,-3.44
2022-12-15T21:01:28.641Z,-3.43
2022-12-15T21:03:58.141Z,-3.44
2022-12-15T21:06:27.571Z,-3.45
2022-12-15T21:08:55.958Z,-3.45
2022-12-15T21:11:32.739Z,-3.48
2022-12-15T21:14:04.261Z,-3.46
2022-12-15T21:16:32.710Z,-3.45
2022-12-15T21:19:21.965Z,-3.47
2022-12-15T21:21:55.475Z,-3.47
2022-12-15T21:24:28.003Z,-3.44
2022-12-15T21:26:55.603Z,-3.44
2022-12-15T21:29:27.483Z,-3.46
2022-12-15T21:31:54.655Z,-3.47
2022-12-15T21:34:21.636Z,-3.49
2022-12-15T21:36:55.003Z,-3.49
2022-12-15T21:39:31.077Z,-3.48
2022-12-15T21:42:13.435Z,-3.50
2022-12-15T21:44:41.628Z,-3.55
2022-12-15T21:47:49.273Z,-3.52
2022-12-15T21:50:18.211Z,-3.48
2022-12-15T21:52:46.805Z,-3.50
2022-12-15T21:55:27.997Z,-3.51
2022-12-15T21:57:55.506Z,-3.50
2022-12-15T22:00:24.049Z,-3.47
2022-12-15T22:02:53.276Z,-3.43
2022-12-15T22:05:22.695Z,-3.43
2022-12-15T22:07:50.970Z,-3.43
2022-12-15T22:10:19.248Z,-3.41
2022-12-15T22:12:57.551Z,-3.38
2022-12-15T22:15:28.025Z,-3.39
2022-12-15T22:17:56.091Z,-3.36
2022-12-15T22:20:24.792Z,-3.36
2022-12-15T22:22:52.468Z,-3.33
2022-12-15T22:25:26.037Z,-3.33
2022-12-15T22:27:54.832Z,-3.30
2022-12-15T22:30:26.849Z,-3.30
2022-12-15T22:32:54.247Z,-3.30
2022-12-15T22:35:25.555Z,-3.32
2022-12-15T22:37:53.998Z,-3.32
2022-12-15T22:40:25.009Z,-3.33
2022-12-15T22:42:57.754Z,-3.36
2022-12-15T22:45:25.129Z,-3.38
2022-12-15T22:47:53.492Z,-3.39
2022-12-15T22:50:25.470Z,-3.41
2022-12-15T22:52:53.059Z,-3.45
2022-12-15T22:55:23.087Z,-3.50
2022-12-15T22:58:03.188Z,-3.51
2022-12-15T23:00:30.119Z,-3.52
2022-12-15T23:02:58.875Z,-3.56
2022-12-15T23:05:26.199Z,-3.58
2022-12-15T23:07:53.749Z,-3.61
2022-12-15T23:10:40.871Z,-3.62
2022-12-15T23:13:23.650Z,-3.61
2022-12-15T23:16:10.259Z,-3.62
2022-12-15T23:18:37.437Z,-3.59
2022-12-15T23:21:04.720Z,-3.53
2022-12-15T23:23:32.710Z,-3.50
2022-12-15T23:25:59.940Z,-3.45
2022-12-15T23:28:27.578Z,-3.45
2022-12-15T23:30:55.771Z,-3.42
2022-12-15T23:33:24.995Z,-3.41
2022-12-15T23:35:57.286Z,-3.40
2022-12-15T23:38:26.668Z,-3.37
2022-12-15T23:40:55.508Z,-3.38
2022-12-15T23:43:24.117Z,-3.41
2022-12-15T23:46:07.495Z,-3.40
2022-12-15T23:48:39.426Z,-3.41
2022-12-15T23:51:18.263Z,-3.45
2022-12-15T23:53:47.064Z,-3.44
2022-12-15T23:56:24.638Z,-3.45
2022-12-15T23:58:58.533Z,-3.47
